createdAt,value
2023-01-10T00:01:08.914Z,24.40
2023-01-10T00:03:38.071Z,22.00
2023-01-10T00:06:07.471Z,23.70
2023-01-10T00:08:36.538Z,24.07
2023-01-10T00:11:26.115Z,23.10
2023-01-10T00:13:56.293Z,25.03
2023-01-10T00:16:25.685Z,26.30
2023-01-10T00:18:54.827Z,25.33
2023-01-10T00:21:24.012Z,26.33
2023-01-10T00:23:53.630Z,26.67
2023-01-10T00:26:22.728Z,25.30
2023-01-10T00:28:53.763Z,26.77
2023-01-10T00:31:24.477Z,26.73
2023-01-10T00:33:53.675Z,27.80
2023-01-10T00:36:22.778Z,27.90
2023-01-10T00:38:51.883Z,28.30
2023-01-10T00:41:34.683Z,30.27
2023-01-10T00:44:03.806Z,32.50
2023-01-10T00:46:34.400Z,29.33
2023-01-10T00:49:11.424Z,28.20
2023-01-10T00:51:40.524Z,28.00
2023-01-10T00:54:11.103Z,27.00
2023-01-10T00:56:40.562Z,27.23
2023-01-10T00:59:09.733Z,28.30
2023-01-10T01:01:40.540Z,27.13
2023-01-10T01:04:09.787Z,25.80
2023-01-10T01:06:38.911Z,28.07
2023-01-10T01:09:08.152Z,26.93
2023-01-10T01:11:37.283Z,26.80
2023-01-10T01:14:06.608Z,26.50
2023-01-10T01:16:35.923Z,27.30
2023-01-10T01:19:06.513Z,27.50
2023-01-10T01:21:35.814Z,27.80
2023-01-10T01:24:05.050Z,27.90
2023-01-10T01:26:35.531Z,27.60
2023-01-10T01:29:04.919Z,26.63
2023-01-10T01:31:34.162Z,28.40
2023-01-10T01:34:03.491Z,27.13
2023-01-10T01:36:34.064Z,28.43
2023-01-10T01:39:04.085Z,29.00
2023-01-10T01:41:50.609Z,27.97
2023-01-10T01:44:21.212Z,27.67
2023-01-10T01:46:52.892Z,27.67
2023-01-10T01:49:25.643Z,28.20
2023-01-10T01:52:01.860Z,28.80
2023-01-10T01:54:32.418Z,27.87
2023-01-10T01:57:05.684Z,29.30
2023-01-10T01:59:39.796Z,27.97
2023-01-10T02:02:12.556Z,28.57
2023-01-10T02:04:47.336Z,28.07
2023-01-10T02:07:17.887Z,28.90
2023-01-10T02:09:51.764Z,28.47
2023-01-10T02:12:21.658Z,29.67
2023-01-10T02:14:53.549Z,30.43
2023-01-10T02:17:22.741Z,29.97
2023-01-10T02:19:54.787Z,29.77
2023-01-10T02:23:02.489Z,29.37
2023-01-10T02:26:13.483Z,29.03
2023-01-10T02:29:15.621Z,30.47
2023-01-10T02:32:17.868Z,30.03
2023-01-10T02:34:58.993Z,28.63
2023-01-10T02:37:39.883Z,30.10
2023-01-10T02:40:15.582Z,31.20
2023-01-10T02:42:51.596Z,30.43
2023-01-10T02:45:26.455Z,30.33
2023-01-10T02:47:58.184Z,30.03
2023-01-10T02:50:33.346Z,28.93
2023-01-10T02:53:10.982Z,29.13
2023-01-10T02:55:56.082Z,30.93
2023-01-10T02:58:37.927Z,30.33
2023-01-10T03:01:17.228Z,29.87
2023-01-10T03:03:56.119Z,29.37
2023-01-10T03:06:36.038Z,29.13
2023-01-10T03:09:16.158Z,28.80
2023-01-10T03:11:48.175Z,28.23
2023-01-10T03:14:21.683Z,28.73
2023-01-10T03:16:56.304Z,27.77
2023-01-10T03:19:31.031Z,29.77
2023-01-10T03:22:04.033Z,28.00
2023-01-10T03:24:37.574Z,28.40
2023-01-10T03:27:13.571Z,27.63
2023-01-10T03:29:48.623Z,27.80
2023-01-10T03:32:22.547Z,26.30
2023-01-10T03:34:53.610Z,26.53
2023-01-10T03:37:31.206Z,26.17
2023-01-10T03:40:06.503Z,26.20
2023-01-10T03:42:56.941Z,28.90
2023-01-10T03:45:32.155Z,27.57
2023-01-10T03:48:06.679Z,29.23
2023-01-10T03:50:39.097Z,28.40
2023-01-10T03:53:08.440Z,29.43
2023-01-10T03:55:38.020Z,27.50
2023-01-10T03:58:07.655Z,27.43
2023-01-10T04:00:36.799Z,27.50
2023-01-10T04:03:06.060Z,26.50
2023-01-10T04:05:36.826Z,26.93
2023-01-10T04:08:06.227Z,25.77
2023-01-10T04:10:35.537Z,26.27
2023-01-10T04:13:05.010Z,25.93
2023-01-10T04:15:34.569Z,26.70
2023-01-10T04:18:03.786Z,28.43
2023-01-10T04:20:33.049Z,27.30
2023-01-10T04:23:03.632Z,27.13
2023-01-10T04:25:32.862Z,27.47
2023-01-10T04:28:01.984Z,27.57
2023-01-10T04:30:31.364Z,27.13
2023-01-10T04:33:00.587Z,26.93
2023-01-10T04:35:29.779Z,27.80
2023-01-10T04:37:59.094Z,27.83
2023-01-10T04:40:29.631Z,27.63
2023-01-10T04:42:58.811Z,28.10
2023-01-10T04:45:27.989Z,28.17
2023-01-10T04:47:57.409Z,27.97
2023-01-10T04:50:26.567Z,28.83
2023-01-10T04:52:55.809Z,30.27
2023-01-10T04:55:24.937Z,26.87
2023-01-10T04:57:55.498Z,27.90
2023-01-10T05:00:24.759Z,28.83
2023-01-10T05:02:57.619Z,28.40
2023-01-10T05:05:27.064Z,27.17
2023-01-10T05:07:56.336Z,28.10
2023-01-10T05:10:25.647Z,28.60
2023-01-10T05:12:56.225Z,28.00
2023-01-10T05:15:25.785Z,28.00
2023-01-10T05:17:59.794Z,28.93
2023-01-10T05:20:28.934Z,29.13
2023-01-10T05:22:58.025Z,29.27
2023-01-10T05:25:27.146Z,30.07
2023-01-10T05:27:57.605Z,30.10
2023-01-10T05:30:26.811Z,29.57
2023-01-10T05:32:55.995Z,30.87
2023-01-10T05:35:25.218Z,29.43
2023-01-10T05:37:54.492Z,29.20
2023-01-10T05:40:23.687Z,29.27
2023-01-10T05:42:52.885Z,30.23
2023-01-10T05:45:23.605Z,31.60
2023-01-10T05:47:52.727Z,31.50
2023-01-10T05:50:21.822Z,30.93
2023-01-10T05:52:50.946Z,32.33
2023-01-10T05:55:20.215Z,31.33
2023-01-10T05:57:49.523Z,30.97
2023-01-10T06:00:20.141Z,31.27
2023-01-10T06:02:51.055Z,32.97
2023-01-10T06:05:20.393Z,33.57
2023-01-10T06:07:49.705Z,32.70
2023-01-10T06:10:19.352Z,32.73
2023-01-10T06:12:49.976Z,32.57
2023-01-10T06:15:19.424Z,31.47
2023-01-10T06:17:50.079Z,32.13
2023-01-10T06:20:19.587Z,32.77
2023-01-10T06:22:48.690Z,32.57
2023-01-10T06:25:18.025Z,33.80
2023-01-10T06:27:47.161Z,31.77
2023-01-10T06:30:16.963Z,32.07
2023-01-10T06:32:46.313Z,33.70
2023-01-10T06:35:18.520Z,32.80
2023-01-10T06:37:47.810Z,34.30
2023-01-10T06:40:17.712Z,33.10
2023-01-10T06:42:46.975Z,33.17
2023-01-10T06:45:16.292Z,32.60
2023-01-10T06:47:45.855Z,33.23
2023-01-10T06:50:16.604Z,33.37
2023-01-10T06:52:45.741Z,33.57
2023-01-10T06:55:15.136Z,32.67
2023-01-10T06:57:44.437Z,33.00
2023-01-10T07:00:14.423Z,32.97
2023-01-10T07:02:43.626Z,33.40
2023-01-10T07:05:12.915Z,30.53
2023-01-10T07:07:43.908Z,32.60
2023-01-10T07:10:13.529Z,39.85
2023-01-10T07:12:42.680Z,32.10
2023-01-10T07:15:12.959Z,33.03
2023-01-10T07:17:42.102Z,31.83
2023-01-10T07:20:12.721Z,32.60
2023-01-10T07:23:28.953Z,34.33
2023-01-10T07:25:58.166Z,30.37
2023-01-10T07:28:27.322Z,30.53
2023-01-10T07:30:56.545Z,31.03
2023-01-10T07:33:25.692Z,29.07
2023-01-10T07:35:54.864Z,30.77
2023-01-10T07:38:25.594Z,30.50
2023-01-10T07:40:54.825Z,30.37
2023-01-10T07:43:23.977Z,30.73
2023-01-10T07:45:53.274Z,30.33
2023-01-10T07:48:22.663Z,30.70
2023-01-10T07:50:51.887Z,37.23
2023-01-10T07:53:20.977Z,31.13
2023-01-10T07:55:51.476Z,30.93
2023-01-10T07:58:20.602Z,31.07
2023-01-10T08:00:51.156Z,30.80
2023-01-10T08:03:20.437Z,28.20
2023-01-10T08:05:49.718Z,31.23
2023-01-10T08:08:18.922Z,29.47
2023-01-10T08:10:48.092Z,30.77
2023-01-10T08:13:19.397Z,29.13
2023-01-10T08:15:50.541Z,30.80
2023-01-10T08:18:21.459Z,29.60
2023-01-10T08:20:51.307Z,31.23
2023-01-10T08:23:20.760Z,30.60
2023-01-10T08:25:50.223Z,28.53
2023-01-10T08:28:21.035Z,29.03
2023-01-10T08:30:50.706Z,30.90
2023-01-10T08:33:20.041Z,30.70
2023-01-10T08:35:49.218Z,31.20
2023-01-10T08:38:18.356Z,29.03
2023-01-10T08:40:47.555Z,30.03
2023-01-10T08:43:16.932Z,28.27
2023-01-10T08:45:47.837Z,28.67
2023-01-10T08:48:17.277Z,30.27
2023-01-10T08:50:46.842Z,29.40
2023-01-10T08:53:16.053Z,29.93
2023-01-10T08:55:45.242Z,28.93
2023-01-10T08:58:14.632Z,29.23
2023-01-10T09:00:45.314Z,28.57
2023-01-10T09:03:16.219Z,29.33
2023-01-10T09:05:45.504Z,27.17
2023-01-10T09:08:14.775Z,26.60
2023-01-10T09:10:44.059Z,28.20
2023-01-10T09:13:13.285Z,28.53
2023-01-10T09:15:44.500Z,26.70
2023-01-10T09:18:15.897Z,28.43
2023-01-10T09:20:45.789Z,27.77
2023-01-10T09:23:19.174Z,27.20
2023-01-10T09:25:49.737Z,28.40
2023-01-10T09:28:19.650Z,34.10
2023-01-10T09:30:49.731Z,28.20
2023-01-10T09:33:21.500Z,26.93
2023-01-10T09:35:50.939Z,26.00
2023-01-10T09:38:22.534Z,25.73
2023-01-10T09:41:11.877Z,26.17
2023-01-10T09:43:53.132Z,26.53
2023-01-10T09:46:35.660Z,26.60
2023-01-10T09:49:17.675Z,26.13
2023-01-10T09:51:49.715Z,25.20
2023-01-10T09:54:24.979Z,26.67
2023-01-10T09:57:03.149Z,24.90
2023-01-10T09:59:38.459Z,25.90
2023-01-10T10:02:20.773Z,25.93
2023-01-10T10:05:05.295Z,26.53
2023-01-10T10:07:34.615Z,26.67
2023-01-10T10:10:05.829Z,25.83
2023-01-10T10:12:43.067Z,25.93
2023-01-10T10:15:25.590Z,25.57
2023-01-10T10:18:04.475Z,25.50
2023-01-10T10:20:58.837Z,25.73
2023-01-10T10:24:02.323Z,25.13
2023-01-10T10:26:36.246Z,25.80
2023-01-10T10:29:44.119Z,25.77
2023-01-10T10:32:43.349Z,25.67
2023-01-10T10:35:18.566Z,25.00
2023-01-10T10:37:52.959Z,26.87
2023-01-10T10:40:25.881Z,28.33
2023-01-10T10:42:57.763Z,29.00
2023-01-10T10:45:39.736Z,44.67
2023-01-10T10:48:17.748Z,27.73
2023-01-10T10:50:57.164Z,26.57
2023-01-10T10:53:27.940Z,27.13
2023-01-10T10:55:57.934Z,27.20
2023-01-10T10:58:30.985Z,26.73
2023-01-10T11:01:00.875Z,26.27
2023-01-10T11:03:40.065Z,26.30
2023-01-10T11:06:11.597Z,27.23
2023-01-10T11:08:46.920Z,27.03
2023-01-10T11:11:23.609Z,27.87
2023-01-10T11:13:57.324Z,27.97
2023-01-10T11:16:29.899Z,27.87
2023-01-10T11:19:17.096Z,26.90
2023-01-10T11:21:53.599Z,27.47
2023-01-10T11:24:28.752Z,27.13
2023-01-10T11:26:59.345Z,26.57
2023-01-10T11:29:34.229Z,26.10
2023-01-10T11:32:14.750Z,27.27
2023-01-10T11:34:50.439Z,25.83
2023-01-10T11:37:29.327Z,27.13
2023-01-10T11:40:19.599Z,25.40
2023-01-10T11:42:49.566Z,25.17
2023-01-10T11:45:34.182Z,24.80
2023-01-10T11:48:19.388Z,24.60
2023-01-10T11:50:52.063Z,24.70
2023-01-10T11:53:39.576Z,23.47
2023-01-10T11:56:12.961Z,24.03
2023-01-10T11:58:44.166Z,23.80
2023-01-10T12:01:28.828Z,23.60
2023-01-10T12:03:58.571Z,22.63
2023-01-10T12:06:29.584Z,23.83
2023-01-10T12:08:58.889Z,23.30
2023-01-10T12:11:32.676Z,22.37
2023-01-10T12:14:03.518Z,22.90
2023-01-10T12:16:33.961Z,23.33
2023-01-10T12:19:05.536Z,22.87
2023-01-10T12:21:41.094Z,20.97
2023-01-10T12:24:18.868Z,21.57
2023-01-10T12:26:51.290Z,22.03
2023-01-10T12:29:26.619Z,21.27
2023-01-10T12:31:59.648Z,21.63
2023-01-10T12:34:37.540Z,22.80
2023-01-10T12:37:15.040Z,21.07
2023-01-10T12:39:48.504Z,20.13
2023-01-10T12:42:46.425Z,22.07
2023-01-10T12:45:21.076Z,19.70
2023-01-10T12:48:01.219Z,21.73
2023-01-10T12:50:34.686Z,20.43
2023-01-10T12:53:09.529Z,20.80
2023-01-10T12:55:42.435Z,19.57
2023-01-10T12:58:22.034Z,19.20
2023-01-10T13:00:55.339Z,18.30
2023-01-10T13:03:28.865Z,18.40
2023-01-10T13:05:59.727Z,18.73
2023-01-10T13:08:31.257Z,18.70
2023-01-10T13:11:02.723Z,18.93
2023-01-10T13:13:36.596Z,17.97
2023-01-10T13:16:24.128Z,20.13
2023-01-10T13:19:27.518Z,18.73
2023-01-10T13:22:22.042Z,20.07
2023-01-10T13:24:59.733Z,19.57
2023-01-10T13:27:32.896Z,19.63
2023-01-10T13:30:05.592Z,19.83
2023-01-10T13:32:38.719Z,19.57
2023-01-10T13:35:17.577Z,20.93
2023-01-10T13:37:53.548Z,21.60
2023-01-10T13:40:27.704Z,21.23
2023-01-10T13:43:42.537Z,20.40
2023-01-10T13:46:38.978Z,21.03
2023-01-10T13:49:49.413Z,21.93
2023-01-10T13:52:35.905Z,21.23
2023-01-10T13:55:34.513Z,20.93
2023-01-10T13:58:06.733Z,22.47
2023-01-10T14:01:16.887Z,21.63
2023-01-10T14:03:51.720Z,20.67
2023-01-10T14:06:41.375Z,19.60
2023-01-10T14:09:34.104Z,19.70
2023-01-10T14:12:05.668Z,20.77
2023-01-10T14:14:39.533Z,21.97
2023-01-10T14:17:16.139Z,21.00
2023-01-10T14:19:49.207Z,20.90
2023-01-10T14:22:28.622Z,20.40
2023-01-10T14:24:58.644Z,20.80
2023-01-10T14:27:42.703Z,22.33
2023-01-10T14:30:21.011Z,20.90
2023-01-10T14:32:52.655Z,20.73
2023-01-10T14:35:25.584Z,20.40
2023-01-10T14:37:57.988Z,21.07
2023-01-10T14:40:31.563Z,20.57
2023-01-10T14:43:04.170Z,20.47
2023-01-10T14:45:38.103Z,19.27
2023-01-10T14:48:28.493Z,19.00
2023-01-10T14:51:24.937Z,18.40
2023-01-10T14:54:00.258Z,17.73
2023-01-10T14:56:31.302Z,19.37
2023-01-10T14:59:00.384Z,17.70
2023-01-10T15:01:32.155Z,17.20
2023-01-10T15:04:03.132Z,17.07
2023-01-10T15:06:52.978Z,16.77
2023-01-10T15:09:22.195Z,16.77
2023-01-10T15:11:53.080Z,16.47
2023-01-10T15:14:26.584Z,17.30
2023-01-10T15:17:02.504Z,16.33
2023-01-10T15:19:34.949Z,16.53
2023-01-10T15:22:17.341Z,15.67
2023-01-10T15:24:58.204Z,15.30
2023-01-10T15:27:27.506Z,16.33
2023-01-10T15:29:57.356Z,15.77
2023-01-10T15:32:30.658Z,14.70
2023-01-10T15:35:00.496Z,14.73
2023-01-10T15:37:36.199Z,14.60
2023-01-10T15:40:10.746Z,14.77
2023-01-10T15:42:39.982Z,40.63
2023-01-10T15:45:31.123Z,15.00
2023-01-10T15:48:04.397Z,15.03
2023-01-10T15:50:38.931Z,14.83
2023-01-10T15:53:11.404Z,15.13
2023-01-10T15:55:44.348Z,14.47
2023-01-10T15:58:28.811Z,14.13
2023-01-10T16:00:59.407Z,14.83
2023-01-10T16:03:33.184Z,15.67
2023-01-10T16:06:04.844Z,15.43
2023-01-10T16:08:37.433Z,15.23
2023-01-10T16:11:08.941Z,15.53
2023-01-10T16:13:37.713Z,16.93
2023-01-10T16:16:17.268Z,14.80
2023-01-10T16:18:46.398Z,15.50
2023-01-10T16:21:16.502Z,17.50
2023-01-10T16:23:47.491Z,16.00
2023-01-10T16:26:16.888Z,17.00
2023-01-10T16:28:46.142Z,16.93
2023-01-10T16:31:16.054Z,17.33
2023-01-10T16:33:46.139Z,19.37
2023-01-10T16:36:21.092Z,18.63
2023-01-10T16:38:51.735Z,18.77
2023-01-10T16:41:38.023Z,19.23
2023-01-10T16:44:07.288Z,19.47
2023-01-10T16:46:36.543Z,18.33
2023-01-10T16:49:08.296Z,17.93
2023-01-10T16:51:40.843Z,19.07
2023-01-10T16:54:16.414Z,21.17
2023-01-10T16:56:45.734Z,20.23
2023-01-10T16:59:16.346Z,19.07
2023-01-10T17:01:48.294Z,19.60
2023-01-10T17:04:22.323Z,19.77
2023-01-10T17:06:51.658Z,20.37
2023-01-10T17:09:25.060Z,19.13
2023-01-10T17:12:02.181Z,19.60
2023-01-10T17:14:32.728Z,19.73
2023-01-10T17:17:04.724Z,18.67
2023-01-10T17:19:33.982Z,18.67
2023-01-10T17:22:03.169Z,18.57
2023-01-10T17:24:33.768Z,20.03
2023-01-10T17:27:02.853Z,19.37
2023-01-10T17:29:32.997Z,19.57
2023-01-10T17:32:02.322Z,19.33
2023-01-10T17:34:37.448Z,19.10
2023-01-10T17:37:07.030Z,20.17
2023-01-10T17:39:38.094Z,20.07
2023-01-10T17:42:07.784Z,19.70
2023-01-10T17:44:36.958Z,19.27
2023-01-10T17:47:06.340Z,17.90
2023-01-10T17:49:36.635Z,17.70
2023-01-10T17:52:07.237Z,17.83
2023-01-10T17:54:37.959Z,18.33
2023-01-10T17:57:08.087Z,19.07
2023-01-10T17:59:37.547Z,18.93
2023-01-10T18:02:07.728Z,17.37
2023-01-10T18:04:37.095Z,17.87
2023-01-10T18:07:07.346Z,18.03
2023-01-10T18:09:38.025Z,18.07
2023-01-10T18:12:07.947Z,17.03
2023-01-10T18:14:39.832Z,17.60
2023-01-10T18:17:12.066Z,17.13
2023-01-10T18:19:41.388Z,18.03
2023-01-10T18:22:29.383Z,17.87
2023-01-10T18:25:01.067Z,17.67
2023-01-10T18:27:30.678Z,16.50
2023-01-10T18:30:00.129Z,16.33
2023-01-10T18:32:29.540Z,16.70
2023-01-10T18:35:00.151Z,17.37
2023-01-10T18:37:29.410Z,16.37
2023-01-10T18:39:59.999Z,15.83
2023-01-10T18:42:31.618Z,16.30
2023-01-10T18:45:01.562Z,15.73
2023-01-10T18:47:31.691Z,17.27
2023-01-10T18:50:05.558Z,16.97
2023-01-10T18:52:35.072Z,17.03
2023-01-10T18:55:10.021Z,17.10
2023-01-10T18:57:42.064Z,16.07
2023-01-10T19:00:13.133Z,15.70
2023-01-10T19:02:43.367Z,14.97
2023-01-10T19:05:14.468Z,13.93
2023-01-10T19:07:44.062Z,14.77
2023-01-10T19:10:18.029Z,15.30
2023-01-10T19:12:48.609Z,15.10
2023-01-10T19:15:19.087Z,14.57
2023-01-10T19:17:49.198Z,39.70
2023-01-10T19:20:20.756Z,15.90
2023-01-10T19:22:51.163Z,14.07
2023-01-10T19:25:23.321Z,13.70
2023-01-10T19:27:53.371Z,14.07
2023-01-10T19:30:26.029Z,14.77
2023-01-10T19:33:01.276Z,17.20
2023-01-10T19:35:36.321Z,20.10
2023-01-10T19:38:06.415Z,21.10
2023-01-10T19:40:41.361Z,14.90
2023-01-10T19:43:11.099Z,15.90
2023-01-10T19:45:43.393Z,15.10
2023-01-10T19:48:13.817Z,15.13
2023-01-10T19:50:47.070Z,15.57
2023-01-10T19:53:17.468Z,14.67
2023-01-10T19:55:49.610Z,14.97
2023-01-10T19:58:20.056Z,14.20
2023-01-10T20:00:50.641Z,14.50
2023-01-10T20:03:20.825Z,15.43
2023-01-10T20:05:51.186Z,14.13
2023-01-10T20:08:21.586Z,13.83
2023-01-10T20:10:52.937Z,14.77
2023-01-10T20:13:22.364Z,15.07
2023-01-10T20:16:06.012Z,13.97
2023-01-10T20:18:44.569Z,12.63
2023-01-10T20:21:23.575Z,13.27
2023-01-10T20:23:54.749Z,13.33
2023-01-10T20:26:33.375Z,13.23
2023-01-10T20:29:05.202Z,13.67
2023-01-10T20:31:35.730Z,12.90
2023-01-10T20:34:08.806Z,13.10
2023-01-10T20:36:39.810Z,14.23
2023-01-10T20:39:09.653Z,13.70
2023-01-10T20:41:41.029Z,13.63
2023-01-10T20:44:11.979Z,14.97
2023-01-10T20:46:44.431Z,14.47
2023-01-10T20:49:14.806Z,14.13
2023-01-10T20:51:45.066Z,13.90
2023-01-10T20:54:14.831Z,15.57
2023-01-10T20:56:47.869Z,18.13
2023-01-10T20:59:18.380Z,20.40
2023-01-10T21:01:48.051Z,20.60
2023-01-10T21:04:20.968Z,22.73
2023-01-10T21:06:50.473Z,22.00
2023-01-10T21:09:20.039Z,27.60
2023-01-10T21:12:02.027Z,28.30
2023-01-10T21:14:39.270Z,29.53
2023-01-10T21:17:08.945Z,29.33
2023-01-10T21:19:38.394Z,31.93
2023-01-10T21:22:07.706Z,32.80
2023-01-10T21:24:37.557Z,32.33
2023-01-10T21:27:08.718Z,32.63
2023-01-10T21:29:37.990Z,31.67
2023-01-10T21:32:09.510Z,34.80
2023-01-10T21:34:39.895Z,33.50
2023-01-10T21:37:12.975Z,33.83
2023-01-10T21:39:42.566Z,32.70
2023-01-10T21:42:31.575Z,34.20
2023-01-10T21:45:03.228Z,32.10
2023-01-10T21:47:32.934Z,33.37
2023-01-10T21:50:02.696Z,33.33
2023-01-10T21:52:32.374Z,32.00
2023-01-10T21:55:01.888Z,32.50
2023-01-10T21:57:32.534Z,32.50
2023-01-10T22:00:02.231Z,33.00
2023-01-10T22:02:41.151Z,30.93
2023-01-10T22:05:11.906Z,31.30
2023-01-10T22:07:41.260Z,30.53
2023-01-10T22:10:12.430Z,29.13
2023-01-10T22:12:43.996Z,28.63
2023-01-10T22:15:14.627Z,27.13
2023-01-10T22:17:43.885Z,27.20
2023-01-10T22:20:13.870Z,27.80
2023-01-10T22:22:43.098Z,26.87
2023-01-10T22:25:12.245Z,27.30
2023-01-10T22:27:45.030Z,25.47
2023-01-10T22:30:15.023Z,22.80
2023-01-10T22:32:44.219Z,23.93
2023-01-10T22:35:14.909Z,24.53
2023-01-10T22:37:44.342Z,23.93
2023-01-10T22:40:13.895Z,23.23
2023-01-10T22:42:44.438Z,23.83
2023-01-10T22:45:13.704Z,24.10
2023-01-10T22:47:42.970Z,23.83
2023-01-10T22:50:12.755Z,25.17
2023-01-10T22:52:41.900Z,24.00
2023-01-10T22:55:11.426Z,23.90
2023-01-10T22:57:47.335Z,23.13
2023-01-10T23:03:05.433Z,24.97
2023-01-10T23:05:34.630Z,25.03
2023-01-10T23:08:03.814Z,23.20
2023-01-10T23:10:36.549Z,24.07
2023-01-10T23:13:09.532Z,23.07
2023-01-10T23:15:40.134Z,22.40
2023-01-10T23:18:09.400Z,22.33
2023-01-10T23:20:38.541Z,21.50
2023-01-10T23:23:07.565Z,19.57
2023-01-10T23:25:37.468Z,21.10
2023-01-10T23:28:06.690Z,19.47
2023-01-10T23:30:35.912Z,21.67
2023-01-10T23:33:06.501Z,20.67
2023-01-10T23:35:35.686Z,21.47
2023-01-10T23:38:05.096Z,21.77
2023-01-10T23:40:34.548Z,21.70
2023-01-10T23:43:03.878Z,22.77
2023-01-10T23:45:33.112Z,22.43
2023-01-10T23:48:02.774Z,22.43
2023-01-10T23:50:33.472Z,22.53
2023-01-10T23:53:02.748Z,22.13
2023-01-10T23:55:32.218Z,21.67
2023-01-10T23:58:01.542Z,23.37
